Time;durP1;ratioP1;P1;durP2;ratioP2;P2;SDS_P1;SDS_P2;PMS_P1;PMS_P2;Temp;Humidity;BMP_temperature;BMP_pressure;BME280_temperature;BME280_humidity;BME280_pressure;Samples;Min_cycle;Max_cycle;Signal;HPM_P1;HPM_P2
2022/04/26 03:38:34;;;;;;;7.68;3.20;;;;;;;11.60;63.31;94598.97;4939859;29;20221;-64
2022/04/26 03:41:01;;;;;;;6.53;3.58;;;;;;;11.65;63.17;94595.88;4939308;29;20534;-64
2022/04/26 03:43:30;;;;;;;8.15;3.40;;;;;;;11.67;63.11;94603.81;4955616;29;20205;-65
2022/04/26 03:45:57;;;;;;;7.97;3.22;;;;;;;11.70;62.95;94600.31;4955540;29;20201;-64
2022/04/26 03:48:26;;;;;;;9.05;3.65;;;;;;;11.73;62.55;94613.41;4955401;29;20227;-64
2022/04/26 03:50:54;;;;;;;9.25;3.60;;;;;;;11.75;62.48;94600.00;4939378;29;20222;-64
2022/04/26 03:53:21;;;;;;;13.77;3.80;;;;;;;11.70;62.73;94605.84;4939273;29;20229;-67
2022/04/26 03:55:50;;;;;;;11.07;3.63;;;;;;;11.74;62.84;94603.94;4955324;28;20214;-64
2022/04/26 03:58:18;;;;;;;8.38;3.97;;;;;;;11.71;63.26;94611.00;4955800;29;20487;-64
2022/04/26 04:00:46;;;;;;;9.77;4.15;;;;;;;11.67;63.05;94614.88;4955633;29;20653;-63
2022/04/26 04:03:14;;;;;;;9.70;3.80;;;;;;;11.69;62.81;94616.09;4956194;29;20205;-67
2022/04/26 04:05:42;;;;;;;10.60;3.55;;;;;;;11.71;62.95;94611.00;4955529;29;20193;-63
2022/04/26 04:08:11;;;;;;;14.43;4.32;;;;;;;11.73;62.98;94616.16;5012672;28;20273;-64
2022/04/26 04:10:39;;;;;;;11.00;4.85;;;;;;;11.72;62.92;94623.63;5035221;28;20633;-63
2022/04/26 04:13:07;;;;;;;10.45;5.18;;;;;;;11.75;63.26;94617.38;5035138;28;20190;-67
2022/04/26 04:15:34;;;;;;;13.18;5.72;;;;;;;11.76;62.82;94624.50;5017461;28;20294;-69
2022/04/26 04:18:02;;;;;;;9.70;5.80;;;;;;;11.79;62.60;94623.75;5033685;28;20602;-63
2022/04/26 04:20:29;;;;;;;13.40;6.55;;;;;;;11.84;63.47;94635.66;5017490;28;20217;-64
2022/04/26 04:22:58;;;;;;;18.20;6.47;;;;;;;11.81;63.73;94629.69;5017611;28;20203;-63
2022/04/26 04:25:28;;;;;;;9.07;3.90;;;;;;;11.75;63.42;94633.94;5033606;28;20242;-65
2022/04/26 04:27:56;;;;;;;15.07;3.95;;;;;;;11.76;63.60;94643.03;5017565;28;20194;-64
2022/04/26 04:30:24;;;;;;;14.05;4.32;;;;;;;11.83;63.87;94643.13;5034842;28;20197;-65
2022/04/26 04:32:52;;;;;;;9.82;4.55;;;;;;;11.88;63.88;94640.09;5017450;28;20202;-64
2022/04/26 04:35:20;;;;;;;11.05;4.72;;;;;;;11.93;64.46;94642.53;5034766;28;20198;-65
2022/04/26 04:37:49;;;;;;;15.20;5.10;;;;;;;11.96;64.62;94644.56;5034860;28;20187;-63
2022/04/26 04:40:17;;;;;;;14.73;4.80;;;;;;;12.01;63.33;94644.22;5017368;28;20419;-64
2022/04/26 04:42:47;;;;;;;13.80;4.93;;;;;;;12.19;63.26;94649.22;5017080;28;20194;-64
2022/04/26 04:45:16;;;;;;;12.38;5.20;;;;;;;12.37;63.06;94649.47;5017391;28;20198;-65
2022/04/26 04:47:44;;;;;;;14.93;5.28;;;;;;;12.49;63.24;94654.75;5035220;28;20625;-65
2022/04/26 04:50:10;;;;;;;11.93;4.65;;;;;;;12.42;62.69;94649.97;5035332;28;20198;-65
2022/04/26 04:52:38;;;;;;;12.57;4.93;;;;;;;12.41;64.00;94651.09;5034435;28;20194;-66
2022/04/26 04:55:07;;;;;;;18.55;4.50;;;;;;;12.40;64.17;94655.06;5035332;28;20186;-66
2022/04/26 04:57:34;;;;;;;8.63;3.80;;;;;;;12.43;63.82;94650.75;5034791;28;20206;-65
2022/04/26 05:00:04;;;;;;;9.20;4.35;;;;;;;12.49;63.64;94647.28;5018048;28;20222;-65
2022/04/26 05:02:33;;;;;;;11.93;4.53;;;;;;;12.55;63.63;94655.25;5018668;28;20293;-70
2022/04/26 05:05:00;;;;;;;6.13;3.80;;;;;;;12.65;62.25;94651.81;5017574;28;20194;-66
2022/04/26 05:07:30;;;;;;;10.27;3.75;;;;;;;12.79;60.61;94651.22;5034651;28;20195;-66
2022/04/26 05:09:56;;;;;;;10.52;3.05;;;;;;;12.92;60.23;94658.06;5037826;28;20183;-67
2022/04/26 05:12:25;;;;;;;5.53;2.60;;;;;;;13.03;59.27;94661.75;5037931;28;20218;-66
2022/04/26 05:14:54;;;;;;;2.80;2.20;;;;;;;13.14;57.95;94651.59;5037711;28;20269;-66
2022/04/26 05:17:27;;;;;;;2.95;2.10;;;;;;;13.26;57.69;94660.84;5037732;28;20193;-67
2022/04/26 05:19:54;;;;;;;6.75;2.78;;;;;;;13.34;57.42;94670.81;5037590;28;20218;-68
2022/04/26 05:22:22;;;;;;;3.42;2.20;;;;;;;13.38;56.89;94669.69;5038068;28;20207;-67
2022/04/26 05:24:56;;;;;;;6.65;2.92;;;;;;;13.41;57.48;94657.84;5036721;28;20230;-67
2022/04/26 05:27:26;;;;;;;3.03;2.33;;;;;;;13.49;56.64;94659.50;5019963;28;20213;-66
2022/04/26 05:29:53;;;;;;;3.80;2.13;;;;;;;13.55;56.03;94668.25;5001476;28;20195;-66
2022/04/26 05:32:27;;;;;;;4.03;2.28;;;;;;;13.58;56.65;94661.97;5001377;28;20202;-67
2022/04/26 05:34:57;;;;;;;2.72;1.98;;;;;;;13.63;56.19;94666.34;5001496;28;20294;-66
2022/04/26 05:37:25;;;;;;;3.92;2.08;;;;;;;13.69;55.66;94662.84;5001921;28;20195;-67
2022/04/26 05:39:55;;;;;;;2.95;1.63;;;;;;;13.77;54.22;94674.00;5034203;28;20223;-68
2022/04/26 05:42:21;;;;;;;3.30;1.88;;;;;;;13.83;55.67;94670.47;5000471;28;20195;-66
2022/04/26 05:44:49;;;;;;;2.55;1.90;;;;;;;13.85;55.86;94676.44;5033899;28;20203;-68
2022/04/26 05:47:18;;;;;;;6.50;1.92;;;;;;;13.86;55.71;94672.47;5017506;28;20209;-66
2022/04/26 05:49:48;;;;;;;5.65;2.42;;;;;;;13.92;55.30;94682.03;5016340;28;20221;-66
2022/04/26 05:52:16;;;;;;;4.88;1.80;;;;;;;13.98;55.09;94685.28;5032965;28;20551;-67
2022/04/26 05:54:45;;;;;;;3.70;1.80;;;;;;;14.03;54.45;94678.56;5017172;28;20189;-68
2022/04/26 05:57:13;;;;;;;3.47;1.70;;;;;;;14.07;55.26;94677.41;5017573;28;20187;-71
2022/04/26 05:59:41;;;;;;;5.22;2.08;;;;;;;14.11;54.89;94677.44;5000303;28;20219;-67
2022/04/26 06:02:09;;;;;;;3.97;1.70;;;;;;;14.13;53.26;94675.88;5032623;28;20222;-66
2022/04/26 06:04:37;;;;;;;2.67;1.63;;;;;;;14.16;53.84;94680.66;5017637;28;20202;-65
2022/04/26 06:07:07;;;;;;;2.45;1.73;;;;;;;14.20;53.74;94675.13;5000513;28;20199;-66
2022/04/26 06:09:36;;;;;;;2.38;2.05;;;;;;;14.21;53.76;94674.72;5000040;28;20195;-65
2022/04/26 06:12:04;;;;;;;2.95;1.60;;;;;;;14.22;52.99;94664.44;5016786;28;20187;-67
2022/04/26 06:14:32;;;;;;;1.85;1.48;;;;;;;14.27;53.61;94661.31;5017076;28;20613;-68
2022/04/26 06:17:00;;;;;;;3.50;1.70;;;;;;;14.32;53.11;94665.69;5017012;28;20195;-66
2022/04/26 06:19:29;;;;;;;4.90;1.88;;;;;;;14.35;54.25;94662.94;5015493;28;20218;-68
2022/04/26 06:21:57;;;;;;;6.40;2.30;;;;;;;14.38;53.72;94667.72;5032562;28;20205;-68
2022/04/26 06:24:27;;;;;;;4.65;1.80;;;;;;;14.42;53.16;94657.44;5035209;28;20281;-65
2022/04/26 06:26:54;;;;;;;4.15;1.98;;;;;;;14.45;53.60;94651.13;5019537;28;20198;-65
2022/04/26 06:29:21;;;;;;;3.53;1.80;;;;;;;14.45;53.82;94653.06;5035393;28;20289;-65
2022/04/26 06:31:50;;;;;;;3.53;1.95;;;;;;;14.46;53.75;94649.13;5018250;28;20423;-65
2022/04/26 06:34:19;;;;;;;2.65;1.83;;;;;;;14.49;53.76;94648.38;5019072;28;20190;-65
2022/04/26 06:36:50;;;;;;;2.53;1.70;;;;;;;14.55;53.95;94651.56;5035881;28;20547;-64
2022/04/26 06:39:17;;;;;;;2.25;1.65;;;;;;;14.58;53.72;94648.81;5018924;28;20216;-66
2022/04/26 06:41:47;;;;;;;2.58;1.80;;;;;;;14.64;53.33;94649.25;5036088;28;20226;-62
2022/04/26 06:44:16;;;;;;;3.92;2.10;;;;;;;14.68;53.09;94641.75;5035343;28;20191;-67
2022/04/26 06:46:44;;;;;;;6.75;2.17;;;;;;;14.76;52.00;94640.59;5036268;28;20183;-64
2022/04/26 06:49:11;;;;;;;10.38;3.42;;;;;;;14.85;52.42;94638.25;5036280;28;20183;-63
2022/04/26 06:51:44;;;;;;;5.93;3.03;;;;;;;14.91;52.37;94636.66;5018808;28;20198;-63
2022/04/26 06:54:11;;;;;;;4.50;1.77;;;;;;;15.01;50.77;94637.13;5018438;28;20206;-63
2022/04/26 06:56:40;;;;;;;3.83;2.42;;;;;;;15.13;50.42;94637.53;5018781;28;20209;-63
2022/04/26 06:59:09;;;;;;;2.60;1.80;;;;;;;15.25;50.05;94633.63;5036130;28;20253;-62
2022/04/26 07:01:36;;;;;;;4.18;1.70;;;;;;;15.33;49.40;94637.19;5036038;28;20228;-63
2022/04/26 07:04:03;;;;;;;4.22;2.10;;;;;;;15.39;48.82;94633.63;5035695;28;20214;-63
2022/04/26 07:06:32;;;;;;;4.75;1.80;;;;;;;15.44;47.90;94628.88;5018702;28;20203;-63
2022/04/26 07:09:01;;;;;;;2.75;1.90;;;;;;;15.48;48.51;94632.47;5035624;28;20193;-63
2022/04/26 07:11:30;;;;;;;3.05;1.88;;;;;;;15.56;48.18;94632.06;5034870;28;20248;-63
2022/04/26 07:13:58;;;;;;;2.83;1.67;;;;;;;15.64;49.08;94632.84;5018238;28;20204;-63
2022/04/26 07:16:28;;;;;;;2.35;1.60;;;;;;;15.70;47.86;94634.09;5035728;28;20195;-63
2022/04/26 07:18:55;;;;;;;2.15;1.70;;;;;;;15.75;46.97;94627.34;5017991;28;20212;-63
2022/04/26 07:21:22;;;;;;;2.78;1.80;;;;;;;15.83;47.15;94624.19;5018296;28;20245;-63
2022/04/26 07:23:50;;;;;;;1.98;1.60;;;;;;;15.92;46.63;94623.78;5035799;28;20198;-63
2022/04/26 07:26:19;;;;;;;2.15;1.40;;;;;;;16.02;45.04;94630.53;5000128;28;20241;-63
2022/04/26 07:28:47;;;;;;;1.90;1.58;;;;;;;16.04;46.52;94630.91;4998495;28;20547;-63
2022/04/26 07:31:15;;;;;;;2.28;1.80;;;;;;;16.12;45.94;94638.03;4998214;28;20187;-63
2022/04/26 07:36:29;;;;;;;5.82;3.78;;;;;;;16.21;46.58;94630.09;5015309;28;20179;-63
2022/04/26 07:38:57;;;;;;;2.10;1.90;;;;;;;16.26;45.22;94632.47;4998398;28;20207;-63
2022/04/26 07:41:25;;;;;;;3.72;2.00;;;;;;;16.28;45.63;94629.28;5015238;28;20207;-63
2022/04/26 07:43:55;;;;;;;3.42;2.45;;;;;;;16.35;46.25;94627.28;5015679;28;20194;-63
2022/04/26 07:46:22;;;;;;;3.28;2.25;;;;;;;16.51;47.21;94631.63;5015282;28;20242;-63
2022/04/26 07:48:55;;;;;;;2.90;1.70;;;;;;;16.66;45.07;94633.16;4998198;28;20222;-63
2022/04/26 07:51:23;;;;;;;2.38;1.70;;;;;;;16.68;45.26;94633.56;5015214;28;20636;-62
2022/04/26 07:53:50;;;;;;;1.60;1.50;;;;;;;16.70;44.43;94622.81;4998387;28;20195;-63
2022/04/26 07:56:17;;;;;;;2.90;1.70;;;;;;;16.77;45.15;94624.81;4998109;28;20195;-63
2022/04/26 07:58:45;;;;;;;2.05;1.73;;;;;;;16.94;45.45;94628.72;4998556;28;20207;-63
2022/04/26 08:01:13;;;;;;;2.97;1.90;;;;;;;17.03;45.33;94624.31;5014957;28;20215;-63
2022/04/26 08:03:43;;;;;;;4.40;1.92;;;;;;;17.15;44.30;94625.06;5015427;28;20195;-63
2022/04/26 08:06:13;;;;;;;2.20;1.58;;;;;;;17.22;44.74;94628.59;4998715;28;20195;-63
2022/04/26 08:08:41;;;;;;;1.65;1.55;;;;;;;17.37;45.44;94618.16;4998071;28;20228;-63
2022/04/26 08:11:12;;;;;;;3.80;1.70;;;;;;;17.55;44.38;94624.41;4998124;28;20206;-63
2022/04/26 08:13:40;;;;;;;2.63;1.60;;;;;;;17.68;43.46;94623.91;4997886;28;20206;-63
2022/04/26 08:16:07;;;;;;;4.50;1.85;;;;;;;17.77;45.29;94625.06;5015160;28;20183;-63
2022/04/26 08:18:35;;;;;;;2.72;1.85;;;;;;;17.86;44.54;94629.41;5014711;28;20210;-63
2022/04/26 08:21:03;;;;;;;2.53;1.80;;;;;;;17.89;44.23;94623.78;4997887;28;20554;-63
2022/04/26 08:23:35;;;;;;;2.78;1.70;;;;;;;17.93;43.71;94620.97;4997770;28;20213;-63
2022/04/26 08:28:49;;;;;;;7.43;2.30;;;;;;;18.20;45.94;94626.72;5017997;28;20197;-63
2022/04/26 08:31:18;;;;;;;2.40;2.15;;;;;;;18.27;44.80;94626.66;5034950;28;20191;-63
2022/04/26 08:33:47;;;;;;;3.75;2.28;;;;;;;18.31;45.78;94618.25;5017504;28;20194;-63
2022/04/26 08:36:15;;;;;;;3.28;2.28;;;;;;;18.27;44.93;94621.88;5033759;28;20202;-63
2022/04/26 08:38:47;;;;;;;4.82;2.40;;;;;;;18.36;48.43;94623.38;5034529;28;20611;-63
2022/04/26 08:41:16;;;;;;;5.03;2.58;;;;;;;18.43;45.84;94620.50;5017152;28;20214;-63
2022/04/26 08:43:44;;;;;;;4.20;2.25;;;;;;;18.61;45.16;94612.75;5019930;28;20638;-63
2022/04/26 08:46:10;;;;;;;5.90;2.25;;;;;;;18.69;44.83;94616.25;5020580;28;20214;-63
2022/04/26 08:51:26;;;;;;;5.45;2.30;;;;;;;18.82;44.33;94610.94;5021313;28;20200;-63
2022/04/26 08:53:56;;;;;;;4.20;2.10;;;;;;;18.74;43.14;94611.03;5038238;28;20187;-64
2022/04/26 08:56:23;;;;;;;5.82;2.85;;;;;;;18.81;44.79;94621.34;5038038;28;20217;-64
2022/04/26 08:58:51;;;;;;;4.25;2.60;;;;;;;18.88;45.63;94617.66;5021051;28;20269;-64
2022/04/26 09:01:19;;;;;;;5.65;2.63;;;;;;;18.95;45.03;94618.38;5038197;28;20218;-64
2022/04/26 09:03:59;;;;;;;6.72;2.72;;;;;;;19.08;45.42;94618.59;5021034;28;20222;-63
2022/04/26 09:06:39;;;;;;;5.95;2.75;;;;;;;19.16;43.63;94620.09;5037739;28;20602;-64
2022/04/26 09:09:14;;;;;;;6.60;2.50;;;;;;;19.16;45.46;94614.50;5037779;28;20214;-64
2022/04/26 09:11:43;;;;;;;4.97;2.90;;;;;;;19.17;43.21;94613.31;5037740;28;20519;-64
2022/04/26 09:14:12;;;;;;;6.07;2.70;;;;;;;19.19;43.86;94608.06;5020556;28;20703;-65
2022/04/26 09:16:39;;;;;;;6.15;2.80;;;;;;;19.31;44.67;94605.91;5020729;28;20200;-67
2022/04/26 09:19:07;;;;;;;6.70;3.30;;;;;;;19.41;44.84;94607.78;5037643;28;20198;-67
2022/04/26 09:21:37;;;;;;;4.30;2.50;;;;;;;19.40;42.73;94600.59;5020666;28;20214;-68
2022/04/26 09:24:06;;;;;;;3.42;2.47;;;;;;;19.53;44.82;94598.81;5037821;28;20273;-68
2022/04/26 09:26:41;;;;;;;6.88;2.67;;;;;;;19.74;45.41;94599.72;5037168;28;20234;-69
2022/04/26 09:29:09;;;;;;;7.85;3.47;;;;;;;19.88;45.54;94593.91;5037412;28;20519;-68
2022/04/26 09:31:39;;;;;;;6.65;3.25;;;;;;;19.88;44.82;94588.31;5036221;28;20206;-66
2022/04/26 09:34:12;;;;;;;4.65;3.17;;;;;;;19.97;44.05;94599.75;5036381;28;20252;-65
2022/04/26 09:36:44;;;;;;;7.70;4.57;;;;;;;19.95;44.55;94593.78;5020337;28;20209;-65
2022/04/26 09:39:18;;;;;;;6.22;3.78;;;;;;;19.94;43.69;94595.03;5036751;28;20652;-66
2022/04/26 09:41:51;;;;;;;9.25;5.95;;;;;;;19.95;42.84;94594.59;5036511;28;20229;-65
2022/04/26 09:44:31;;;;;;;28.95;23.90;;;;;;;20.03;44.66;94588.88;5037501;28;20198;-66
2022/04/26 09:47:00;;;;;;;6.35;3.15;;;;;;;20.15;45.12;94589.06;5037587;28;20189;-66
2022/04/26 09:49:36;;;;;;;8.00;3.72;;;;;;;20.33;45.36;94590.72;5037314;28;20179;-65
2022/04/26 09:52:06;;;;;;;16.10;9.25;;;;;;;20.38;44.04;94585.44;5019911;28;20543;-63
2022/04/26 09:54:37;;;;;;;7.95;3.50;;;;;;;20.45;43.96;94584.53;5037238;28;20277;-63
2022/04/26 09:57:06;;;;;;;8.05;4.85;;;;;;;20.52;43.33;94581.63;5019501;28;20198;-62
2022/04/26 09:59:39;;;;;;;6.20;3.80;;;;;;;20.63;42.78;94578.63;5036665;28;20544;-62
2022/04/26 10:02:08;;;;;;;7.63;3.58;;;;;;;20.68;42.66;94572.50;5037236;28;20206;-61
2022/04/26 10:04:38;;;;;;;8.27;3.95;;;;;;;20.74;44.32;94570.78;5036923;28;20511;-62
2022/04/26 10:07:09;;;;;;;5.45;3.40;;;;;;;20.83;44.08;94573.78;5036906;28;20202;-63
2022/04/26 10:09:39;;;;;;;8.93;6.32;;;;;;;20.95;42.81;94569.53;5037090;28;20198;-63
2022/04/26 10:12:10;;;;;;;5.97;3.33;;;;;;;20.85;42.15;94570.56;5036861;28;20194;-63
2022/04/26 10:14:38;;;;;;;6.93;3.10;;;;;;;20.94;42.62;94576.38;5036606;28;20598;-63
2022/04/26 10:17:05;;;;;;;9.00;4.70;;;;;;;20.88;43.36;94573.31;5036998;28;20178;-63
2022/04/26 10:19:44;;;;;;;7.43;3.10;;;;;;;20.80;42.13;94569.03;5036948;28;20266;-65
2022/04/26 10:22:17;;;;;;;5.13;2.70;;;;;;;20.94;40.71;94567.97;5036605;28;20221;-64
2022/04/26 10:25:09;;;;;;;5.65;3.20;;;;;;;21.10;40.48;94559.63;5019355;28;20245;-65
2022/04/26 10:27:37;;;;;;;6.22;2.95;;;;;;;21.43;42.48;94558.94;5019169;28;20623;-64
2022/04/26 10:30:04;;;;;;;11.68;5.25;;;;;;;21.61;41.73;94542.50;5019166;28;20213;-64
2022/04/26 10:32:38;;;;;;;9.45;3.50;;;;;;;21.76;41.89;94548.56;5036696;28;20200;-65
2022/04/26 10:35:35;;;;;;;8.15;3.67;;;;;;;21.74;39.86;94546.16;5019341;28;20229;-64
2022/04/26 10:38:13;;;;;;;12.73;8.23;;;;;;;21.53;39.62;94549.47;5036314;28;20206;-64
2022/04/26 10:41:09;;;;;;;5.55;3.75;;;;;;;21.56;39.43;94543.00;5019667;28;20222;-64
2022/04/26 10:43:38;;;;;;;10.38;6.13;;;;;;;21.76;38.51;94543.72;5035279;28;20213;-64
2022/04/26 10:46:12;;;;;;;7.05;2.88;;;;;;;21.67;37.77;94542.75;5018887;28;20191;-64
2022/04/26 10:48:40;;;;;;;3.40;2.17;;;;;;;21.66;36.41;94533.53;5036302;28;20201;-65
2022/04/26 10:51:34;;;;;;;6.03;2.50;;;;;;;21.83;37.92;94534.34;5036122;28;20194;-64
2022/04/26 10:54:01;;;;;;;5.25;3.53;;;;;;;22.02;37.84;94539.06;5018413;28;20206;-64
2022/04/26 10:56:29;;;;;;;4.90;2.30;;;;;;;22.09;36.84;94532.47;5002725;28;20218;-64
2022/04/26 10:58:57;;;;;;;7.00;3.42;;;;;;;22.17;36.49;94528.28;5035784;28;20197;-64
2022/04/26 11:01:27;;;;;;;6.38;2.70;;;;;;;22.19;36.68;94527.84;5018273;28;20222;-65
2022/04/26 11:03:57;;;;;;;5.65;2.15;;;;;;;22.23;35.86;94526.53;5036166;28;20187;-66
2022/04/26 11:06:36;;;;;;;6.40;4.15;;;;;;;22.31;36.32;94522.28;5018472;28;20206;-66
2022/04/26 11:09:09;;;;;;;4.65;3.47;;;;;;;22.47;37.06;94527.06;5019348;28;20202;-66
2022/04/26 11:11:50;;;;;;;5.38;3.10;;;;;;;22.50;38.08;94522.59;5019888;28;20205;-66
2022/04/26 11:14:21;;;;;;;5.30;3.15;;;;;;;22.54;35.54;94518.44;5036873;28;20194;-66
2022/04/26 11:16:56;;;;;;;4.47;2.60;;;;;;;22.72;36.83;94514.34;5036991;28;20226;-66
2022/04/26 11:19:29;;;;;;;4.18;2.17;;;;;;;22.73;35.16;94511.09;5021610;28;20206;-66
2022/04/26 11:21:58;;;;;;;5.25;3.00;;;;;;;22.77;37.18;94508.19;5038140;28;20614;-66
2022/04/26 11:30:00;;;;;;;4.47;2.60;;;;;;;23.00;36.51;94507.94;5018365;28;20195;-65
2022/04/26 11:32:32;;;;;;;4.47;2.50;;;;;;;23.04;36.19;94510.63;5035494;28;20188;-64
2022/04/26 11:35:00;;;;;;;4.63;2.60;;;;;;;23.14;35.87;94512.34;5018447;28;20289;-63
2022/04/26 11:37:28;;;;;;;4.70;2.13;;;;;;;23.24;34.21;94502.78;5017768;28;20524;-64
2022/04/26 11:39:57;;;;;;;3.08;2.17;;;;;;;23.33;35.91;94496.47;5035055;28;20198;-64
2022/04/26 11:42:25;;;;;;;4.10;2.40;;;;;;;23.13;32.95;94495.91;5017602;28;20756;-64
2022/04/26 11:45:02;;;;;;;4.30;2.50;;;;;;;22.96;34.25;94492.41;5018113;28;20598;-70
2022/04/26 11:47:44;;;;;;;4.50;2.30;;;;;;;23.00;35.35;94493.09;5035299;28;20249;-66
2022/04/26 11:50:13;;;;;;;5.68;2.10;;;;;;;22.95;35.73;94490.81;5035058;28;20272;-64
2022/04/26 11:52:43;;;;;;;5.38;2.08;;;;;;;22.82;33.73;94488.72;5034894;28;20197;-64
2022/04/26 11:55:25;;;;;;;10.45;2.80;;;;;;;22.68;34.16;94491.19;5017930;28;20206;-64
2022/04/26 11:57:55;;;;;;;10.73;3.30;;;;;;;22.55;34.62;94488.34;5034777;28;20656;-64
2022/04/26 12:00:25;;;;;;;7.28;3.03;;;;;;;22.37;34.86;94485.22;5033544;28;20199;-64
2022/04/26 12:02:55;;;;;;;5.00;2.63;;;;;;;22.42;37.49;94491.09;5034709;28;20650;-65
2022/04/26 12:05:23;;;;;;;5.25;2.25;;;;;;;22.63;36.37;94478.47;5035316;28;20212;-64
2022/04/26 12:07:51;;;;;;;6.50;3.50;;;;;;;22.89;35.67;94476.50;5034753;28;20637;-64
2022/04/26 12:10:36;;;;;;;5.50;3.45;;;;;;;22.90;33.74;94482.91;5034692;28;20202;-64
2022/04/26 12:13:05;;;;;;;5.00;2.33;;;;;;;22.95;34.60;94465.50;5034697;28;20603;-64
2022/04/26 12:15:39;;;;;;;6.30;2.03;;;;;;;22.95;33.57;94460.69;5017801;28;20292;-65
2022/04/26 12:18:13;;;;;;;5.15;2.55;;;;;;;23.12;35.09;94460.56;5021325;28;20254;-66
2022/04/26 12:20:56;;;;;;;3.95;2.22;;;;;;;23.29;32.70;94454.38;5038401;28;20213;-66
2022/04/26 12:23:26;;;;;;;4.55;2.20;;;;;;;23.42;32.73;94454.41;5018916;28;20209;-66
2022/04/26 12:25:57;;;;;;;4.53;2.20;;;;;;;23.51;31.86;94454.50;5039299;28;20329;-67
2022/04/26 12:28:26;;;;;;;3.72;2.22;;;;;;;23.55;33.01;94455.16;5021510;28;20213;-66
2022/04/26 12:31:01;;;;;;;4.43;2.30;;;;;;;23.62;33.60;94450.53;5038393;28;20209;-64
2022/04/26 12:33:31;;;;;;;2.47;2.08;;;;;;;23.61;31.99;94449.75;5037904;28;20200;-65
2022/04/26 12:36:03;;;;;;;7.75;2.70;;;;;;;23.57;31.84;94445.47;5038704;28;20205;-65
2022/04/26 12:38:46;;;;;;;6.25;2.97;;;;;;;23.33;32.75;94451.47;5038683;28;20194;-65
2022/04/26 12:41:13;;;;;;;4.88;2.42;;;;;;;23.25;32.55;94445.28;5021593;28;20220;-65
2022/04/26 12:43:43;;;;;;;3.70;2.40;;;;;;;23.28;32.51;94450.00;5037725;28;20205;-65
2022/04/26 12:46:12;;;;;;;5.28;2.13;;;;;;;23.11;32.06;94442.13;5038496;28;20190;-65
2022/04/26 12:51:54;;;;;;;6.53;2.25;;;;;;;22.71;33.06;94440.47;5037720;28;20336;-65
2022/04/26 12:54:24;;;;;;;3.60;2.13;;;;;;;22.80;33.71;94429.38;5021019;28;20278;-65
2022/04/26 12:56:59;;;;;;;3.40;2.15;;;;;;;22.86;32.15;94426.78;5020685;28;20199;-71
2022/04/26 12:59:35;;;;;;;10.65;2.58;;;;;;;23.02;33.83;94451.22;5020621;28;20225;-69
2022/04/26 13:02:06;;;;;;;7.78;2.42;;;;;;;23.10;35.91;94438.53;5038141;28;20581;-69
2022/04/26 13:04:35;;;;;;;10.93;2.83;;;;;;;22.88;34.12;94446.81;5037489;28;20202;-68
2022/04/26 13:07:03;;;;;;;5.18;2.20;;;;;;;22.61;35.20;94450.00;5038201;28;20202;-68
2022/04/26 13:09:31;;;;;;;3.85;2.10;;;;;;;22.27;36.22;94456.22;5038336;28;20195;-67
2022/04/26 13:12:00;;;;;;;9.13;3.03;;;;;;;21.67;35.92;94462.16;5038370;28;20198;-68
2022/04/26 13:14:31;;;;;;;4.75;2.13;;;;;;;21.23;36.84;94461.59;5021707;28;20202;-68
2022/04/26 13:16:58;;;;;;;2.55;2.35;;;;;;;21.06;38.14;94466.41;5021010;28;20199;-69
2022/04/26 13:19:27;;;;;;;2.85;2.63;;;;;;;20.72;38.26;94472.34;5038088;28;20187;-68
2022/04/26 13:21:54;;;;;;;3.10;1.90;;;;;;;20.37;37.78;94485.03;5020585;28;20210;-68
2022/04/26 13:24:28;;;;;;;5.63;1.95;;;;;;;20.12;39.01;94477.94;5020106;28;20210;-68
2022/04/26 13:26:56;;;;;;;9.45;3.03;;;;;;;20.03;39.31;94491.69;5020597;28;20199;-69
2022/04/26 13:29:24;;;;;;;5.05;2.00;;;;;;;19.80;39.43;94492.50;5020220;28;20194;-68
2022/04/26 13:31:52;;;;;;;3.22;1.80;;;;;;;19.75;39.57;94498.56;5020154;28;20205;-70
2022/04/26 13:34:20;;;;;;;6.15;2.17;;;;;;;19.88;38.28;94495.97;5029448;28;20198;-70
2022/04/26 13:36:50;;;;;;;5.47;1.75;;;;;;;20.04;38.76;94493.25;5020789;28;20210;-70
2022/04/26 13:39:18;;;;;;;3.67;1.80;;;;;;;20.14;37.42;94478.28;5037636;28;20194;-67
2022/04/26 13:41:51;;;;;;;4.32;1.63;;;;;;;19.91;38.17;94478.31;5037580;28;20287;-66
2022/04/26 13:44:19;;;;;;;3.85;1.67;;;;;;;19.87;39.11;94472.00;5036542;28;20238;-66
2022/04/26 13:46:48;;;;;;;2.80;1.60;;;;;;;19.64;40.07;94461.59;5020090;28;20607;-66
2022/04/26 13:49:16;;;;;;;4.50;1.83;;;;;;;19.65;40.35;94461.19;5037192;28;20183;-66
2022/04/26 13:51:44;;;;;;;3.70;1.65;;;;;;;19.51;40.35;94449.44;5019725;28;20202;-66
2022/04/26 13:54:15;;;;;;;3.15;1.80;;;;;;;19.33;41.34;94458.91;5019945;28;20191;-66
2022/04/26 13:56:44;;;;;;;1.73;1.55;;;;;;;19.22;41.59;94469.47;5037304;28;20197;-66
2022/04/26 13:59:15;;;;;;;2.17;1.75;;;;;;;19.04;41.66;94475.31;5037295;28;20615;-66
2022/04/26 14:01:42;;;;;;;3.28;1.98;;;;;;;19.05;42.49;94487.28;5036905;28;20310;-68
2022/04/26 14:04:10;;;;;;;3.40;1.90;;;;;;;19.10;42.40;94482.03;5019781;28;20206;-67
2022/04/26 14:06:38;;;;;;;5.55;2.05;;;;;;;19.20;42.91;94489.44;5017075;28;20594;-68
2022/04/26 14:09:06;;;;;;;4.55;2.03;;;;;;;19.32;42.87;94502.06;5035021;28;20194;-69
2022/04/26 14:11:35;;;;;;;3.67;1.73;;;;;;;19.40;43.10;94500.72;5019067;28;20210;-68
2022/04/26 14:22:20;;;;;;;3.10;2.08;;;;;;;19.96;42.63;94551.38;5019062;28;20681;-69
2022/04/26 14:24:52;;;;;;;2.17;1.65;;;;;;;19.92;41.94;94556.25;5016189;28;20243;-67
2022/04/26 14:27:21;;;;;;;4.18;1.88;;;;;;;19.80;42.03;94572.88;5016106;28;20201;-67
2022/04/26 14:29:49;;;;;;;5.82;2.03;;;;;;;19.84;42.85;94582.00;5000219;28;20202;-67
2022/04/26 14:32:17;;;;;;;4.45;2.40;;;;;;;19.92;42.81;94587.03;5035575;28;20194;-67
2022/04/26 14:34:46;;;;;;;3.85;2.30;;;;;;;19.95;42.69;94591.00;5035594;28;20524;-68
2022/04/26 14:37:14;;;;;;;6.65;1.98;;;;;;;19.84;42.14;94602.38;5018998;28;20618;-67
2022/04/26 14:39:43;;;;;;;4.03;2.53;;;;;;;19.54;43.10;94606.00;5034378;28;20205;-68
2022/04/26 14:42:13;;;;;;;7.97;2.80;;;;;;;19.23;44.87;94606.00;5036238;28;20203;-69
2022/04/26 14:44:45;;;;;;;5.97;2.10;;;;;;;18.94;45.31;94607.59;5018948;28;20202;-69
2022/04/26 14:47:13;;;;;;;8.13;2.92;;;;;;;18.92;45.03;94613.63;5036624;28;20213;-69
2022/04/26 14:49:41;;;;;;;9.13;2.65;;;;;;;18.97;45.31;94629.13;5036293;28;20198;-70
2022/04/26 14:52:09;;;;;;;3.28;2.22;;;;;;;18.93;45.39;94631.97;5034801;28;20202;-69
2022/04/26 14:54:37;;;;;;;2.80;2.15;;;;;;;18.95;45.29;94654.69;5018976;28;20195;-69
2022/04/26 14:57:05;;;;;;;3.60;1.80;;;;;;;18.93;44.68;94651.53;5018832;28;20201;-69
2022/04/26 14:59:38;;;;;;;1.95;1.63;;;;;;;18.91;43.98;94650.34;5018581;28;20190;-70
2022/04/26 15:02:11;;;;;;;2.20;1.40;;;;;;;18.81;43.97;94651.25;5034532;28;20708;-69
2022/04/26 15:04:39;;;;;;;2.83;1.40;;;;;;;18.68;44.49;94651.75;5035339;28;20214;-69
2022/04/26 15:07:10;;;;;;;2.67;1.67;;;;;;;18.40;45.06;94652.84;5018715;28;20198;-69
2022/04/26 15:09:45;;;;;;;1.73;1.63;;;;;;;18.39;45.44;94648.47;5034677;28;20198;-69
2022/04/26 15:17:50;;;;;;;3.58;2.25;;;;;;;18.43;46.40;94660.41;5034822;28;20638;-67
2022/04/26 15:20:19;;;;;;;6.03;5.40;;;;;;;18.41;46.90;94648.03;5034199;28;20209;-68
2022/04/26 15:22:48;;;;;;;6.75;4.57;;;;;;;18.39;47.03;94647.69;5034682;28;20272;-68
2022/04/26 15:25:15;;;;;;;5.18;3.03;;;;;;;18.45;47.39;94649.63;5017605;28;20264;-68
2022/04/26 15:27:42;;;;;;;5.53;3.50;;;;;;;18.58;47.14;94651.88;5035255;28;20205;-68
2022/04/26 15:30:12;;;;;;;3.42;3.00;;;;;;;18.65;46.77;94654.59;5034354;28;20206;-68
2022/04/26 15:32:40;;;;;;;5.03;3.55;;;;;;;18.51;46.77;94658.31;5035107;28;20613;-69
2022/04/26 15:35:11;;;;;;;3.40;3.08;;;;;;;18.50;46.71;94665.13;5018451;28;20206;-70
2022/04/26 15:37:38;;;;;;;3.97;2.72;;;;;;;18.51;46.56;94672.28;5018036;28;20210;-69
2022/04/26 15:40:07;;;;;;;2.42;1.90;;;;;;;18.43;46.54;94668.75;5034522;28;20210;-70
2022/04/26 15:42:35;;;;;;;2.45;1.95;;;;;;;18.44;46.61;94667.56;5017911;28;20229;-69
2022/04/26 15:45:02;;;;;;;3.08;2.28;;;;;;;18.47;47.00;94654.78;5017913;28;20206;-70
2022/04/26 15:47:33;;;;;;;3.15;1.90;;;;;;;18.53;46.79;94658.72;5035199;28;20252;-70
2022/04/26 15:50:01;;;;;;;2.22;1.63;;;;;;;18.58;46.52;94660.25;5035195;28;20190;-69
2022/04/26 15:52:31;;;;;;;3.08;1.80;;;;;;;18.59;46.44;94659.03;5017539;28;20198;-69